sensor_id;sensor_type;location;lat;lon;timestamp;temperature;humidity
11107;DHT22;5607;48.302;14.294;2023-08-01T00:01:18;20.50;1.00
11107;DHT22;5607;48.302;14.294;2023-08-01T00:04:04;20.40;1.00
11107;DHT22;5607;48.302;14.294;2023-08-01T00:06:50;20.50;1.00
11107;DHT22;5607;48.302;14.294;2023-08-01T00:09:36;20.40;1.00
11107;DHT22;5607;48.302;14.294;2023-08-01T00:12:24;20.40;1.00
11107;DHT22;5607;48.302;14.294;2023-08-01T00:15:10;20.40;1.00
11107;DHT22;5607;48.302;14.294;2023-08-01T00:17:56;20.30;1.00
11107;DHT22;5607;48.302;14.294;2023-08-01T00:20:42;20.40;1.00
11107;DHT22;5607;48.302;14.294;2023-08-01T00:23:29;20.40;1.00
11107;DHT22;5607;48.302;14.294;2023-08-01T00:26:15;20.40;1.00
11107;DHT22;5607;48.302;14.294;2023-08-01T00:29:01;20.40;1.00
11107;DHT22;5607;48.302;14.294;2023-08-01T00:31:47;20.40;1.00
11107;DHT22;5607;48.302;14.294;2023-08-01T00:34:33;20.40;1.00
11107;DHT22;5607;48.302;14.294;2023-08-01T00:37:20;20.40;1.00
11107;DHT22;5607;48.302;14.294;2023-08-01T00:40:06;20.60;1.00
11107;DHT22;5607;48.302;14.294;2023-08-01T00:42:54;20.60;1.00
11107;DHT22;5607;48.302;14.294;2023-08-01T00:45:42;20.70;1.00
11107;DHT22;5607;48.302;14.294;2023-08-01T00:48:29;20.80;1.00
11107;DHT22;5607;48.302;14.294;2023-08-01T00:51:15;20.80;1.00
11107;DHT22;5607;48.302;14.294;2023-08-01T00:54:03;20.80;1.00
11107;DHT22;5607;48.302;14.294;2023-08-01T00:56:50;20.70;1.00
11107;DHT22;5607;48.302;14.294;2023-08-01T00:59:36;20.70;1.00
11107;DHT22;5607;48.302;14.294;2023-08-01T01:02:22;20.70;1.00
11107;DHT22;5607;48.302;14.294;2023-08-01T01:05:08;20.70;1.00
11107;DHT22;5607;48.302;14.294;2023-08-01T01:07:55;20.60;1.00
11107;DHT22;5607;48.302;14.294;2023-08-01T01:10:41;20.70;1.00
11107;DHT22;5607;48.302;14.294;2023-08-01T01:13:27;20.60;1.00
11107;DHT22;5607;48.302;14.294;2023-08-01T01:16:13;20.50;1.00
11107;DHT22;5607;48.302;14.294;2023-08-01T01:19:00;20.40;1.00
11107;DHT22;5607;48.302;14.294;2023-08-01T01:21:46;20.40;1.00
11107;DHT22;5607;48.302;14.294;2023-08-01T01:24:33;20.40;1.00
11107;DHT22;5607;48.302;14.294;2023-08-01T01:27:20;20.40;1.00
11107;DHT22;5607;48.302;14.294;2023-08-01T01:30:07;20.40;1.00
11107;DHT22;5607;48.302;14.294;2023-08-01T01:32:54;20.40;1.00
11107;DHT22;5607;48.302;14.294;2023-08-01T01:35:40;20.40;1.00
11107;DHT22;5607;48.302;14.294;2023-08-01T01:38:26;20.40;1.00
11107;DHT22;5607;48.302;14.294;2023-08-01T01:41:12;20.40;1.00
11107;DHT22;5607;48.302;14.294;2023-08-01T01:43:59;20.40;1.00
11107;DHT22;5607;48.302;14.294;2023-08-01T01:46:45;20.40;1.00
11107;DHT22;5607;48.302;14.294;2023-08-01T01:49:32;20.40;1.00
11107;DHT22;5607;48.302;14.294;2023-08-01T01:52:18;20.50;1.00
11107;DHT22;5607;48.302;14.294;2023-08-01T01:55:05;20.50;1.00
11107;DHT22;5607;48.302;14.294;2023-08-01T01:57:51;20.40;1.00
11107;DHT22;5607;48.302;14.294;2023-08-01T02:00:37;20.50;1.00
11107;DHT22;5607;48.302;14.294;2023-08-01T02:03:23;20.40;1.00
11107;DHT22;5607;48.302;14.294;2023-08-01T02:06:10;20.40;1.00
11107;DHT22;5607;48.302;14.294;2023-08-01T02:08:56;20.40;1.00
11107;DHT22;5607;48.302;14.294;2023-08-01T02:11:42;20.30;1.00
11107;DHT22;5607;48.302;14.294;2023-08-01T02:14:28;20.30;1.00
11107;DHT22;5607;48.302;14.294;2023-08-01T02:17:14;20.30;1.00
11107;DHT22;5607;48.302;14.294;2023-08-01T02:20:01;20.20;1.00
11107;DHT22;5607;48.302;14.294;2023-08-01T02:22:47;20.10;1.00
11107;DHT22;5607;48.302;14.294;2023-08-01T02:25:37;20.10;1.00
11107;DHT22;5607;48.302;14.294;2023-08-01T02:28:24;20.00;1.00
11107;DHT22;5607;48.302;14.294;2023-08-01T02:31:10;20.10;1.00
11107;DHT22;5607;48.302;14.294;2023-08-01T02:33:57;20.10;1.00
11107;DHT22;5607;48.302;14.294;2023-08-01T02:36:43;20.10;1.00
11107;DHT22;5607;48.302;14.294;2023-08-01T02:39:29;20.10;1.00
11107;DHT22;5607;48.302;14.294;2023-08-01T02:42:16;20.20;1.00
11107;DHT22;5607;48.302;14.294;2023-08-01T02:45:02;20.20;1.00
11107;DHT22;5607;48.302;14.294;2023-08-01T02:47:48;20.20;1.00
11107;DHT22;5607;48.302;14.294;2023-08-01T02:50:35;20.20;1.00
11107;DHT22;5607;48.302;14.294;2023-08-01T02:53:21;20.30;1.00
11107;DHT22;5607;48.302;14.294;2023-08-01T02:56:07;20.30;1.00
11107;DHT22;5607;48.302;14.294;2023-08-01T02:58:56;20.20;1.00
11107;DHT22;5607;48.302;14.294;2023-08-01T03:01:43;20.20;1.00
11107;DHT22;5607;48.302;14.294;2023-08-01T03:04:29;20.10;1.00
11107;DHT22;5607;48.302;14.294;2023-08-01T03:07:15;20.10;1.00
11107;DHT22;5607;48.302;14.294;2023-08-01T03:10:01;20.10;1.00
11107;DHT22;5607;48.302;14.294;2023-08-01T03:12:48;20.10;1.00
11107;DHT22;5607;48.302;14.294;2023-08-01T03:15:34;20.10;1.00
11107;DHT22;5607;48.302;14.294;2023-08-01T03:18:20;20.20;1.00
11107;DHT22;5607;48.302;14.294;2023-08-01T03:21:06;20.10;1.00
11107;DHT22;5607;48.302;14.294;2023-08-01T03:23:53;20.00;1.00
11107;DHT22;5607;48.302;14.294;2023-08-01T03:26:39;20.00;1.00
11107;DHT22;5607;48.302;14.294;2023-08-01T03:29:25;20.00;1.00
11107;DHT22;5607;48.302;14.294;2023-08-01T03:32:11;20.00;6.40
11107;DHT22;5607;48.302;14.294;2023-08-01T03:34:57;19.90;3.90
11107;DHT22;5607;48.302;14.294;2023-08-01T03:37:45;19.90;6.30
11107;DHT22;5607;48.302;14.294;2023-08-01T03:40:31;19.90;1.00
11107;DHT22;5607;48.302;14.294;2023-08-01T03:43:17;19.80;6.20
11107;DHT22;5607;48.302;14.294;2023-08-01T03:46:09;19.70;10.90
11107;DHT22;5607;48.302;14.294;2023-08-01T03:48:55;19.80;30.10
11107;DHT22;5607;48.302;14.294;2023-08-01T03:51:41;19.90;3.70
11107;DHT22;5607;48.302;14.294;2023-08-01T03:54:28;20.00;15.10
11107;DHT22;5607;48.302;14.294;2023-08-01T03:57:14;20.10;5.50
11107;DHT22;5607;48.302;14.294;2023-08-01T04:00:00;20.10;8.00
11107;DHT22;5607;48.302;14.294;2023-08-01T04:02:47;20.20;9.80
11107;DHT22;5607;48.302;14.294;2023-08-01T04:05:33;20.10;1.00
11107;DHT22;5607;48.302;14.294;2023-08-01T04:08:19;20.10;6.10
11107;DHT22;5607;48.302;14.294;2023-08-01T04:11:06;20.10;1.00
11107;DHT22;5607;48.302;14.294;2023-08-01T04:13:52;20.10;2.50
11107;DHT22;5607;48.302;14.294;2023-08-01T04:16:38;20.20;14.80
11107;DHT22;5607;48.302;14.294;2023-08-01T04:19:25;20.10;22.40
11107;DHT22;5607;48.302;14.294;2023-08-01T04:22:11;20.00;14.40
11107;DHT22;5607;48.302;14.294;2023-08-01T04:24:57;20.00;13.60
11107;DHT22;5607;48.302;14.294;2023-08-01T04:27:43;20.10;43.20
11107;DHT22;5607;48.302;14.294;2023-08-01T04:30:29;20.10;32.80
11107;DHT22;5607;48.302;14.294;2023-08-01T04:33:16;20.20;43.50
11107;DHT22;5607;48.302;14.294;2023-08-01T04:36:02;20.10;34.00
11107;DHT22;5607;48.302;14.294;2023-08-01T04:38:48;20.00;67.00
11107;DHT22;5607;48.302;14.294;2023-08-01T04:41:35;19.90;50.40
11107;DHT22;5607;48.302;14.294;2023-08-01T04:44:21;19.90;49.60
11107;DHT22;5607;48.302;14.294;2023-08-01T04:47:07;20.00;76.30
11107;DHT22;5607;48.302;14.294;2023-08-01T04:49:53;20.00;28.70
11107;DHT22;5607;48.302;14.294;2023-08-01T04:52:40;20.10;24.10
11107;DHT22;5607;48.302;14.294;2023-08-01T04:55:26;20.30;45.50
11107;DHT22;5607;48.302;14.294;2023-08-01T04:58:12;20.40;37.00
11107;DHT22;5607;48.302;14.294;2023-08-01T05:00:58;20.40;38.20
11107;DHT22;5607;48.302;14.294;2023-08-01T05:03:44;20.30;44.00
11107;DHT22;5607;48.302;14.294;2023-08-01T05:06:31;20.30;45.40
11107;DHT22;5607;48.302;14.294;2023-08-01T05:09:17;20.30;64.20
11107;DHT22;5607;48.302;14.294;2023-08-01T05:12:03;20.30;70.40
11107;DHT22;5607;48.302;14.294;2023-08-01T05:14:50;20.30;44.90
11107;DHT22;5607;48.302;14.294;2023-08-01T05:17:36;20.20;46.00
11107;DHT22;5607;48.302;14.294;2023-08-01T05:20:23;20.30;57.50
11107;DHT22;5607;48.302;14.294;2023-08-01T05:23:11;20.30;41.50
11107;DHT22;5607;48.302;14.294;2023-08-01T05:25:58;20.40;41.80
11107;DHT22;5607;48.302;14.294;2023-08-01T05:28:44;20.40;58.50
11107;DHT22;5607;48.302;14.294;2023-08-01T05:31:30;20.30;39.50
11107;DHT22;5607;48.302;14.294;2023-08-01T05:34:17;20.20;40.40
11107;DHT22;5607;48.302;14.294;2023-08-01T05:37:03;20.10;30.80
11107;DHT22;5607;48.302;14.294;2023-08-01T05:39:49;20.10;62.10
11107;DHT22;5607;48.302;14.294;2023-08-01T05:42:35;20.10;63.90
11107;DHT22;5607;48.302;14.294;2023-08-01T05:45:22;20.10;93.00
11107;DHT22;5607;48.302;14.294;2023-08-01T05:48:08;20.10;84.60
11107;DHT22;5607;48.302;14.294;2023-08-01T05:50:54;20.10;99.80
11107;DHT22;5607;48.302;14.294;2023-08-01T05:53:41;20.10;96.50
11107;DHT22;5607;48.302;14.294;2023-08-01T05:56:27;20.10;94.30
11107;DHT22;5607;48.302;14.294;2023-08-01T05:59:14;20.10;51.80
11107;DHT22;5607;48.302;14.294;2023-08-01T06:02:00;20.10;87.50
11107;DHT22;5607;48.302;14.294;2023-08-01T06:04:46;20.10;98.40
11107;DHT22;5607;48.302;14.294;2023-08-01T06:07:32;20.20;99.90
11107;DHT22;5607;48.302;14.294;2023-08-01T06:10:19;20.10;73.20
11107;DHT22;5607;48.302;14.294;2023-08-01T06:13:05;20.10;51.90
11107;DHT22;5607;48.302;14.294;2023-08-01T06:15:51;20.10;90.20
11107;DHT22;5607;48.302;14.294;2023-08-01T06:18:37;20.10;84.80
11107;DHT22;5607;48.302;14.294;2023-08-01T06:21:24;20.00;1.00
11107;DHT22;5607;48.302;14.294;2023-08-01T06:24:10;20.00;1.00
11107;DHT22;5607;48.302;14.294;2023-08-01T06:26:56;19.80;1.00
11107;DHT22;5607;48.302;14.294;2023-08-01T06:29:43;19.90;1.00
11107;DHT22;5607;48.302;14.294;2023-08-01T06:32:29;19.90;1.00
11107;DHT22;5607;48.302;14.294;2023-08-01T06:35:15;19.90;1.00
11107;DHT22;5607;48.302;14.294;2023-08-01T06:38:01;20.10;1.00
11107;DHT22;5607;48.302;14.294;2023-08-01T06:40:47;20.10;1.00
11107;DHT22;5607;48.302;14.294;2023-08-01T06:43:33;20.10;1.00
11107;DHT22;5607;48.302;14.294;2023-08-01T06:46:20;20.20;1.00
11107;DHT22;5607;48.302;14.294;2023-08-01T06:49:06;20.10;1.00
11107;DHT22;5607;48.302;14.294;2023-08-01T06:51:52;20.20;1.00
11107;DHT22;5607;48.302;14.294;2023-08-01T06:54:38;20.20;1.00
11107;DHT22;5607;48.302;14.294;2023-08-01T06:57:25;20.30;1.00
11107;DHT22;5607;48.302;14.294;2023-08-01T07:00:12;20.50;1.00
11107;DHT22;5607;48.302;14.294;2023-08-01T07:02:58;20.70;1.00
11107;DHT22;5607;48.302;14.294;2023-08-01T07:05:44;20.80;1.00
11107;DHT22;5607;48.302;14.294;2023-08-01T07:08:30;20.90;1.00
11107;DHT22;5607;48.302;14.294;2023-08-01T07:11:18;20.90;1.00
11107;DHT22;5607;48.302;14.294;2023-08-01T07:14:05;21.00;1.00
11107;DHT22;5607;48.302;14.294;2023-08-01T07:16:51;21.10;1.00
11107;DHT22;5607;48.302;14.294;2023-08-01T07:19:37;21.20;1.00
11107;DHT22;5607;48.302;14.294;2023-08-01T07:22:23;21.30;1.00
11107;DHT22;5607;48.302;14.294;2023-08-01T07:25:10;21.40;1.00
11107;DHT22;5607;48.302;14.294;2023-08-01T07:27:57;21.40;1.00
11107;DHT22;5607;48.302;14.294;2023-08-01T07:30:43;21.40;1.00
11107;DHT22;5607;48.302;14.294;2023-08-01T07:33:29;21.50;1.00
11107;DHT22;5607;48.302;14.294;2023-08-01T07:36:16;21.40;1.00
11107;DHT22;5607;48.302;14.294;2023-08-01T07:39:02;21.50;1.00
11107;DHT22;5607;48.302;14.294;2023-08-01T07:41:49;21.40;1.00
11107;DHT22;5607;48.302;14.294;2023-08-01T07:44:35;21.30;1.00
11107;DHT22;5607;48.302;14.294;2023-08-01T07:47:21;21.20;1.00
11107;DHT22;5607;48.302;14.294;2023-08-01T07:50:09;21.10;1.00
11107;DHT22;5607;48.302;14.294;2023-08-01T07:52:55;20.90;1.00
11107;DHT22;5607;48.302;14.294;2023-08-01T07:55:41;20.80;1.00
11107;DHT22;5607;48.302;14.294;2023-08-01T07:58:28;20.80;1.00
11107;DHT22;5607;48.302;14.294;2023-08-01T08:01:14;20.90;1.00
11107;DHT22;5607;48.302;14.294;2023-08-01T08:04:01;20.80;1.00
11107;DHT22;5607;48.302;14.294;2023-08-01T08:06:47;20.80;1.00
11107;DHT22;5607;48.302;14.294;2023-08-01T08:09:33;20.60;1.00
11107;DHT22;5607;48.302;14.294;2023-08-01T08:12:19;20.70;1.00
11107;DHT22;5607;48.302;14.294;2023-08-01T08:15:06;20.80;1.00
11107;DHT22;5607;48.302;14.294;2023-08-01T08:17:52;20.80;1.00
11107;DHT22;5607;48.302;14.294;2023-08-01T08:20:42;20.70;1.00
11107;DHT22;5607;48.302;14.294;2023-08-01T08:23:29;20.50;1.00
11107;DHT22;5607;48.302;14.294;2023-08-01T08:26:17;20.40;1.00
11107;DHT22;5607;48.302;14.294;2023-08-01T08:29:03;20.40;1.00
11107;DHT22;5607;48.302;14.294;2023-08-01T08:31:51;20.60;1.00
11107;DHT22;5607;48.302;14.294;2023-08-01T08:34:37;20.60;1.00
11107;DHT22;5607;48.302;14.294;2023-08-01T08:37:24;20.70;1.00
11107;DHT22;5607;48.302;14.294;2023-08-01T08:40:12;20.80;1.00
11107;DHT22;5607;48.302;14.294;2023-08-01T08:42:59;20.80;1.00
11107;DHT22;5607;48.302;14.294;2023-08-01T08:45:47;20.70;1.00
11107;DHT22;5607;48.302;14.294;2023-08-01T08:48:35;20.40;1.00
11107;DHT22;5607;48.302;14.294;2023-08-01T08:51:21;20.40;1.00
11107;DHT22;5607;48.302;14.294;2023-08-01T08:54:07;20.50;8.90
11107;DHT22;5607;48.302;14.294;2023-08-01T08:56:53;20.60;1.00
11107;DHT22;5607;48.302;14.294;2023-08-01T08:59:41;20.40;1.00
11107;DHT22;5607;48.302;14.294;2023-08-01T09:02:27;20.30;15.50
11107;DHT22;5607;48.302;14.294;2023-08-01T09:05:13;20.40;9.10
11107;DHT22;5607;48.302;14.294;2023-08-01T09:08:00;20.50;24.60
11107;DHT22;5607;48.302;14.294;2023-08-01T09:10:49;20.70;31.70
11107;DHT22;5607;48.302;14.294;2023-08-01T09:13:35;20.80;4.10
11107;DHT22;5607;48.302;14.294;2023-08-01T09:16:21;20.90;1.00
11107;DHT22;5607;48.302;14.294;2023-08-01T09:19:08;21.10;1.00
11107;DHT22;5607;48.302;14.294;2023-08-01T09:21:54;21.30;1.00
11107;DHT22;5607;48.302;14.294;2023-08-01T09:24:53;21.50;1.00
11107;DHT22;5607;48.302;14.294;2023-08-01T09:27:39;21.50;1.00
11107;DHT22;5607;48.302;14.294;2023-08-01T09:30:26;21.50;1.00
11107;DHT22;5607;48.302;14.294;2023-08-01T09:33:14;21.60;1.00
11107;DHT22;5607;48.302;14.294;2023-08-01T09:36:02;21.70;1.00
11107;DHT22;5607;48.302;14.294;2023-08-01T09:38:50;21.70;1.00
11107;DHT22;5607;48.302;14.294;2023-08-01T09:41:37;21.80;1.00
11107;DHT22;5607;48.302;14.294;2023-08-01T09:44:23;21.80;1.00
11107;DHT22;5607;48.302;14.294;2023-08-01T09:47:10;21.90;1.00
11107;DHT22;5607;48.302;14.294;2023-08-01T09:49:57;21.90;1.00
11107;DHT22;5607;48.302;14.294;2023-08-01T09:52:43;21.90;1.00
11107;DHT22;5607;48.302;14.294;2023-08-01T09:55:32;21.90;1.00
11107;DHT22;5607;48.302;14.294;2023-08-01T09:58:19;21.80;1.00
11107;DHT22;5607;48.302;14.294;2023-08-01T10:01:07;21.70;1.00
11107;DHT22;5607;48.302;14.294;2023-08-01T10:03:53;21.60;1.00
11107;DHT22;5607;48.302;14.294;2023-08-01T10:06:43;21.50;1.00
11107;DHT22;5607;48.302;14.294;2023-08-01T10:09:32;21.50;1.00
11107;DHT22;5607;48.302;14.294;2023-08-01T10:12:19;21.40;1.00
11107;DHT22;5607;48.302;14.294;2023-08-01T10:15:06;21.30;1.00
11107;DHT22;5607;48.302;14.294;2023-08-01T10:17:52;21.20;1.00
11107;DHT22;5607;48.302;14.294;2023-08-01T10:20:39;21.10;1.00
11107;DHT22;5607;48.302;14.294;2023-08-01T10:23:25;21.10;1.00
11107;DHT22;5607;48.302;14.294;2023-08-01T10:26:12;21.10;1.00
11107;DHT22;5607;48.302;14.294;2023-08-01T10:28:59;21.20;1.00
11107;DHT22;5607;48.302;14.294;2023-08-01T10:31:53;21.40;1.00
11107;DHT22;5607;48.302;14.294;2023-08-01T10:34:50;21.40;1.00
11107;DHT22;5607;48.302;14.294;2023-08-01T10:37:40;21.50;1.00
11107;DHT22;5607;48.302;14.294;2023-08-01T10:40:34;21.50;1.00
11107;DHT22;5607;48.302;14.294;2023-08-01T10:43:20;21.70;1.00
11107;DHT22;5607;48.302;14.294;2023-08-01T10:46:07;21.70;1.00
11107;DHT22;5607;48.302;14.294;2023-08-01T10:48:53;21.70;1.00
11107;DHT22;5607;48.302;14.294;2023-08-01T10:51:39;21.70;1.00
11107;DHT22;5607;48.302;14.294;2023-08-01T10:54:26;21.80;1.00
11107;DHT22;5607;48.302;14.294;2023-08-01T10:57:15;21.80;1.00
11107;DHT22;5607;48.302;14.294;2023-08-01T11:00:02;21.80;1.00
11107;DHT22;5607;48.302;14.294;2023-08-01T11:02:58;21.90;1.00
11107;DHT22;5607;48.302;14.294;2023-08-01T11:05:44;22.00;1.00
11107;DHT22;5607;48.302;14.294;2023-08-01T11:08:34;22.10;1.00
11107;DHT22;5607;48.302;14.294;2023-08-01T11:11:20;22.10;1.00
11107;DHT22;5607;48.302;14.294;2023-08-01T11:14:06;22.00;1.00
11107;DHT22;5607;48.302;14.294;2023-08-01T11:16:56;22.00;1.00
11107;DHT22;5607;48.302;14.294;2023-08-01T11:19:43;22.10;1.00
11107;DHT22;5607;48.302;14.294;2023-08-01T11:22:29;22.30;1.00
11107;DHT22;5607;48.302;14.294;2023-08-01T11:25:15;22.50;1.00
11107;DHT22;5607;48.302;14.294;2023-08-01T11:28:11;22.70;1.00
11107;DHT22;5607;48.302;14.294;2023-08-01T11:30:59;22.80;1.00
11107;DHT22;5607;48.302;14.294;2023-08-01T11:33:54;22.80;1.00
11107;DHT22;5607;48.302;14.294;2023-08-01T11:36:40;22.80;1.00
11107;DHT22;5607;48.302;14.294;2023-08-01T11:39:27;22.60;1.00
11107;DHT22;5607;48.302;14.294;2023-08-01T11:42:14;22.50;1.00
11107;DHT22;5607;48.302;14.294;2023-08-01T11:45:07;22.30;1.00
11107;DHT22;5607;48.302;14.294;2023-08-01T11:47:53;22.30;1.00
11107;DHT22;5607;48.302;14.294;2023-08-01T11:50:40;22.20;1.00
11107;DHT22;5607;48.302;14.294;2023-08-01T11:53:28;22.20;1.00
11107;DHT22;5607;48.302;14.294;2023-08-01T11:56:22;22.10;1.00
11107;DHT22;5607;48.302;14.294;2023-08-01T11:59:09;22.00;1.00
11107;DHT22;5607;48.302;14.294;2023-08-01T12:01:56;21.90;1.00
11107;DHT22;5607;48.302;14.294;2023-08-01T12:04:42;21.80;1.00
11107;DHT22;5607;48.302;14.294;2023-08-01T12:07:31;21.70;1.00
11107;DHT22;5607;48.302;14.294;2023-08-01T12:10:18;21.50;1.00
11107;DHT22;5607;48.302;14.294;2023-08-01T12:13:04;21.50;1.00
11107;DHT22;5607;48.302;14.294;2023-08-01T12:15:51;21.40;1.00
11107;DHT22;5607;48.302;14.294;2023-08-01T12:18:38;21.30;1.00
11107;DHT22;5607;48.302;14.294;2023-08-01T12:21:25;21.20;1.00
11107;DHT22;5607;48.302;14.294;2023-08-01T12:24:11;21.20;1.00
11107;DHT22;5607;48.302;14.294;2023-08-01T12:26:57;21.20;1.00
11107;DHT22;5607;48.302;14.294;2023-08-01T12:29:43;21.20;1.00
11107;DHT22;5607;48.302;14.294;2023-08-01T12:32:30;21.40;1.00
11107;DHT22;5607;48.302;14.294;2023-08-01T12:35:16;21.50;1.00
11107;DHT22;5607;48.302;14.294;2023-08-01T12:38:02;21.70;1.00
11107;DHT22;5607;48.302;14.294;2023-08-01T12:40:48;21.70;1.00
11107;DHT22;5607;48.302;14.294;2023-08-01T12:43:35;21.70;1.00
11107;DHT22;5607;48.302;14.294;2023-08-01T12:46:22;21.60;1.00
11107;DHT22;5607;48.302;14.294;2023-08-01T12:49:08;21.70;1.00
11107;DHT22;5607;48.302;14.294;2023-08-01T12:51:55;21.60;1.00
11107;DHT22;5607;48.302;14.294;2023-08-01T12:54:43;21.50;1.00
11107;DHT22;5607;48.302;14.294;2023-08-01T12:57:29;21.40;1.00
11107;DHT22;5607;48.302;14.294;2023-08-01T13:00:15;21.40;1.00
11107;DHT22;5607;48.302;14.294;2023-08-01T13:03:03;21.40;1.00
11107;DHT22;5607;48.302;14.294;2023-08-01T13:05:50;21.30;1.00
11107;DHT22;5607;48.302;14.294;2023-08-01T13:08:36;21.30;1.00
11107;DHT22;5607;48.302;14.294;2023-08-01T13:11:22;21.40;1.00
11107;DHT22;5607;48.302;14.294;2023-08-01T13:14:09;21.40;1.00
11107;DHT22;5607;48.302;14.294;2023-08-01T13:16:55;21.40;1.00
11107;DHT22;5607;48.302;14.294;2023-08-01T13:19:41;21.50;1.00
11107;DHT22;5607;48.302;14.294;2023-08-01T13:22:27;21.60;1.00
11107;DHT22;5607;48.302;14.294;2023-08-01T13:25:13;21.50;1.00
11107;DHT22;5607;48.302;14.294;2023-08-01T13:28:00;21.50;1.00
11107;DHT22;5607;48.302;14.294;2023-08-01T13:30:46;21.40;1.00
11107;DHT22;5607;48.302;14.294;2023-08-01T13:33:32;21.30;1.00
11107;DHT22;5607;48.302;14.294;2023-08-01T13:36:19;21.30;1.00
11107;DHT22;5607;48.302;14.294;2023-08-01T13:39:05;21.20;1.00
11107;DHT22;5607;48.302;14.294;2023-08-01T13:41:52;21.10;1.00
11107;DHT22;5607;48.302;14.294;2023-08-01T13:44:38;21.10;1.00
11107;DHT22;5607;48.302;14.294;2023-08-01T13:47:24;21.00;1.00
11107;DHT22;5607;48.302;14.294;2023-08-01T13:50:10;21.10;1.00
11107;DHT22;5607;48.302;14.294;2023-08-01T13:52:56;21.00;1.00
11107;DHT22;5607;48.302;14.294;2023-08-01T13:55:43;21.00;1.00
11107;DHT22;5607;48.302;14.294;2023-08-01T13:58:29;21.00;1.00
11107;DHT22;5607;48.302;14.294;2023-08-01T14:01:15;21.10;1.00
11107;DHT22;5607;48.302;14.294;2023-08-01T14:04:01;21.20;1.00
11107;DHT22;5607;48.302;14.294;2023-08-01T14:06:48;21.30;1.00
11107;DHT22;5607;48.302;14.294;2023-08-01T14:09:34;21.30;1.00
11107;DHT22;5607;48.302;14.294;2023-08-01T14:12:22;21.40;1.00
11107;DHT22;5607;48.302;14.294;2023-08-01T14:15:10;21.50;1.00
11107;DHT22;5607;48.302;14.294;2023-08-01T14:17:56;21.60;1.00
11107;DHT22;5607;48.302;14.294;2023-08-01T14:20:43;21.70;1.00
11107;DHT22;5607;48.302;14.294;2023-08-01T14:23:30;21.80;1.00
11107;DHT22;5607;48.302;14.294;2023-08-01T14:26:16;22.00;1.00
11107;DHT22;5607;48.302;14.294;2023-08-01T14:29:02;22.20;1.00
11107;DHT22;5607;48.302;14.294;2023-08-01T14:31:49;22.40;1.00
11107;DHT22;5607;48.302;14.294;2023-08-01T14:34:38;22.60;1.00
11107;DHT22;5607;48.302;14.294;2023-08-01T14:37:24;22.80;1.00
11107;DHT22;5607;48.302;14.294;2023-08-01T14:40:12;23.00;1.00
11107;DHT22;5607;48.302;14.294;2023-08-01T14:42:58;23.00;1.00
11107;DHT22;5607;48.302;14.294;2023-08-01T14:45:44;22.80;1.00
11107;DHT22;5607;48.302;14.294;2023-08-01T14:48:30;22.70;1.00
11107;DHT22;5607;48.302;14.294;2023-08-01T14:51:17;22.50;1.00
11107;DHT22;5607;48.302;14.294;2023-08-01T14:54:03;22.30;1.00
11107;DHT22;5607;48.302;14.294;2023-08-01T14:56:49;22.00;1.00
11107;DHT22;5607;48.302;14.294;2023-08-01T14:59:35;21.80;1.00
11107;DHT22;5607;48.302;14.294;2023-08-01T15:02:22;21.60;1.00
11107;DHT22;5607;48.302;14.294;2023-08-01T15:05:09;21.30;1.00
11107;DHT22;5607;48.302;14.294;2023-08-01T15:07:55;21.10;1.00
11107;DHT22;5607;48.302;14.294;2023-08-01T15:10:41;21.10;1.00
11107;DHT22;5607;48.302;14.294;2023-08-01T15:13:27;21.10;1.00
11107;DHT22;5607;48.302;14.294;2023-08-01T15:16:14;21.10;1.00
11107;DHT22;5607;48.302;14.294;2023-08-01T15:19:00;21.10;1.00
11107;DHT22;5607;48.302;14.294;2023-08-01T15:21:46;21.10;1.00
11107;DHT22;5607;48.302;14.294;2023-08-01T15:24:33;21.20;1.00
11107;DHT22;5607;48.302;14.294;2023-08-01T15:27:19;21.30;1.00
11107;DHT22;5607;48.302;14.294;2023-08-01T15:30:05;21.50;1.00
11107;DHT22;5607;48.302;14.294;2023-08-01T15:32:52;21.50;1.00
11107;DHT22;5607;48.302;14.294;2023-08-01T15:35:38;21.50;1.00
11107;DHT22;5607;48.302;14.294;2023-08-01T15:38:24;21.40;1.00
11107;DHT22;5607;48.302;14.294;2023-08-01T15:41:10;21.30;1.00
11107;DHT22;5607;48.302;14.294;2023-08-01T15:43:56;21.20;1.00
11107;DHT22;5607;48.302;14.294;2023-08-01T15:46:43;21.20;1.00
11107;DHT22;5607;48.302;14.294;2023-08-01T15:49:29;21.50;1.00
11107;DHT22;5607;48.302;14.294;2023-08-01T15:52:15;21.60;1.00
11107;DHT22;5607;48.302;14.294;2023-08-01T15:55:01;21.80;1.00
11107;DHT22;5607;48.302;14.294;2023-08-01T15:57:48;21.80;1.00
11107;DHT22;5607;48.302;14.294;2023-08-01T16:00:35;21.70;1.00
11107;DHT22;5607;48.302;14.294;2023-08-01T16:03:23;21.70;1.00
11107;DHT22;5607;48.302;14.294;2023-08-01T16:06:10;21.70;1.00
11107;DHT22;5607;48.302;14.294;2023-08-01T16:08:56;21.70;1.00
11107;DHT22;5607;48.302;14.294;2023-08-01T16:11:42;21.70;1.00
11107;DHT22;5607;48.302;14.294;2023-08-01T16:14:29;21.70;1.00
11107;DHT22;5607;48.302;14.294;2023-08-01T16:17:15;21.90;1.00
11107;DHT22;5607;48.302;14.294;2023-08-01T16:20:02;22.30;1.00
11107;DHT22;5607;48.302;14.294;2023-08-01T16:22:49;22.40;1.00
11107;DHT22;5607;48.302;14.294;2023-08-01T16:25:35;22.30;1.00
11107;DHT22;5607;48.302;14.294;2023-08-01T16:28:21;22.30;1.00
11107;DHT22;5607;48.302;14.294;2023-08-01T16:31:08;22.10;1.00
11107;DHT22;5607;48.302;14.294;2023-08-01T16:33:54;22.00;1.00
11107;DHT22;5607;48.302;14.294;2023-08-01T16:36:40;22.00;1.00
11107;DHT22;5607;48.302;14.294;2023-08-01T16:39:26;22.00;1.00
11107;DHT22;5607;48.302;14.294;2023-08-01T16:42:12;21.90;1.00
11107;DHT22;5607;48.302;14.294;2023-08-01T16:45:00;22.10;1.00
11107;DHT22;5607;48.302;14.294;2023-08-01T16:47:46;22.40;1.00
11107;DHT22;5607;48.302;14.294;2023-08-01T16:50:32;22.70;1.00
11107;DHT22;5607;48.302;14.294;2023-08-01T16:53:18;23.00;1.00
11107;DHT22;5607;48.302;14.294;2023-08-01T16:56:05;23.00;1.00
11107;DHT22;5607;48.302;14.294;2023-08-01T16:58:51;22.90;1.00
11107;DHT22;5607;48.302;14.294;2023-08-01T17:01:38;22.70;1.00
11107;DHT22;5607;48.302;14.294;2023-08-01T17:04:24;22.50;1.00
11107;DHT22;5607;48.302;14.294;2023-08-01T17:07:12;22.30;1.00
11107;DHT22;5607;48.302;14.294;2023-08-01T17:09:59;22.10;1.00
11107;DHT22;5607;48.302;14.294;2023-08-01T17:12:46;22.00;1.00
11107;DHT22;5607;48.302;14.294;2023-08-01T17:15:32;21.80;1.00
11107;DHT22;5607;48.302;14.294;2023-08-01T17:18:19;21.80;1.00
11107;DHT22;5607;48.302;14.294;2023-08-01T17:21:06;21.80;1.00
11107;DHT22;5607;48.302;14.294;2023-08-01T17:23:52;21.60;1.00
11107;DHT22;5607;48.302;14.294;2023-08-01T17:26:39;21.50;1.00
11107;DHT22;5607;48.302;14.294;2023-08-01T17:29:26;21.50;1.00
11107;DHT22;5607;48.302;14.294;2023-08-01T17:32:12;21.50;1.00
11107;DHT22;5607;48.302;14.294;2023-08-01T17:34:58;21.50;1.00
11107;DHT22;5607;48.302;14.294;2023-08-01T17:37:44;21.50;1.00
11107;DHT22;5607;48.302;14.294;2023-08-01T17:40:31;21.50;1.00
11107;DHT22;5607;48.302;14.294;2023-08-01T17:43:17;21.40;1.00
11107;DHT22;5607;48.302;14.294;2023-08-01T17:46:03;21.30;1.00
11107;DHT22;5607;48.302;14.294;2023-08-01T17:48:49;21.00;1.00